Hindsville, Arkansas
Current Conditions -  °F | °C
As of 10:48 AM on Thursday 18 Dec 2014 (Local Time) from KASG Reporting Station
Overcast Overcast  
Wind Chill: 32°   Ceiling: 500
Heat Index: 37°   Visibility: 7mi
Dew Point: 37°   Wind: 7mph
Humidity: 100%   Direction: 150°SSE
Pressure: 30.2"   Gusts: NA
Location:  36.14°N, 93.86°W
Report Text: KASG 181648Z 15006KT 7SM OVC005 03/03 A3020
Loading
Personal Weather Stations






























Interactive Weather Map New forecast layout! Learn more

10-Day Weather Forecast

Advertisements
Track Severe Weather on mobile